sensor_id;sensor_type;location;lat;lon;timestamp;pressure;altitude;pressure_sealevel;temperature;humidity
59289;BME280;45056;47.602;9.886;2024-01-11T00:01:13;93409.19;;;-0.60;71.44
59289;BME280;45056;47.602;9.886;2024-01-11T00:03:41;93416.03;;;-0.62;71.47
59289;BME280;45056;47.602;9.886;2024-01-11T00:06:09;93410.63;;;-0.66;71.50
59289;BME280;45056;47.602;9.886;2024-01-11T00:08:37;93408.28;;;-0.71;71.53
59289;BME280;45056;47.602;9.886;2024-01-11T00:11:05;93414.34;;;-0.74;71.83
59289;BME280;45056;47.602;9.886;2024-01-11T00:13:33;93407.03;;;-0.77;71.46
59289;BME280;45056;47.602;9.886;2024-01-11T00:16:03;93408.91;;;-0.78;71.42
59289;BME280;45056;47.602;9.886;2024-01-11T00:18:31;93400.13;;;-0.78;71.48
59289;BME280;45056;47.602;9.886;2024-01-11T00:21:00;93403.88;;;-0.83;71.47
59289;BME280;45056;47.602;9.886;2024-01-11T00:23:28;93407.97;;;-0.89;71.66
59289;BME280;45056;47.602;9.886;2024-01-11T00:25:56;93406.38;;;-0.94;71.70
59289;BME280;45056;47.602;9.886;2024-01-11T00:28:24;93407.84;;;-0.96;71.70
59289;BME280;45056;47.602;9.886;2024-01-11T00:30:52;93398.59;;;-1.03;71.89
59289;BME280;45056;47.602;9.886;2024-01-11T00:33:21;93404.63;;;-1.06;72.09
59289;BME280;45056;47.602;9.886;2024-01-11T00:35:49;93402.69;;;-1.09;72.09
59289;BME280;45056;47.602;9.886;2024-01-11T00:38:17;93395.81;;;-1.10;72.20
59289;BME280;45056;47.602;9.886;2024-01-11T00:40:46;93403.47;;;-1.08;71.99
59289;BME280;45056;47.602;9.886;2024-01-11T00:43:14;93401.47;;;-1.11;72.02
59289;BME280;45056;47.602;9.886;2024-01-11T00:45:43;93403.75;;;-1.13;72.22
59289;BME280;45056;47.602;9.886;2024-01-11T00:48:11;93405.28;;;-1.12;72.35
59289;BME280;45056;47.602;9.886;2024-01-11T00:50:41;93402.28;;;-1.11;72.05
59289;BME280;45056;47.602;9.886;2024-01-11T00:53:09;93404.94;;;-1.11;72.25
59289;BME280;45056;47.602;9.886;2024-01-11T00:55:37;93409.56;;;-1.08;72.08
59289;BME280;45056;47.602;9.886;2024-01-11T00:58:05;93411.13;;;-1.07;72.04
59289;BME280;45056;47.602;9.886;2024-01-11T01:00:33;93413.78;;;-1.07;72.01
59289;BME280;45056;47.602;9.886;2024-01-11T01:03:01;93409.97;;;-1.06;72.32
59289;BME280;45056;47.602;9.886;2024-01-11T01:05:30;93407.31;;;-1.06;71.82
59289;BME280;45056;47.602;9.886;2024-01-11T01:07:59;93405.78;;;-1.07;71.99
59289;BME280;45056;47.602;9.886;2024-01-11T01:10:27;93412.25;;;-1.08;71.86
59289;BME280;45056;47.602;9.886;2024-01-11T01:12:55;93412.25;;;-1.08;72.21
59289;BME280;45056;47.602;9.886;2024-01-11T01:15:23;93417.25;;;-1.06;71.88
59289;BME280;45056;47.602;9.886;2024-01-11T01:17:52;93416.13;;;-1.05;72.14
59289;BME280;45056;47.602;9.886;2024-01-11T01:20:20;93420.66;;;-1.06;72.23
59289;BME280;45056;47.602;9.886;2024-01-11T01:22:48;93418.38;;;-1.07;71.87
59289;BME280;45056;47.602;9.886;2024-01-11T01:25:18;93424.06;;;-1.09;71.63
59289;BME280;45056;47.602;9.886;2024-01-11T01:27:46;93425.94;;;-1.09;71.75
59289;BME280;45056;47.602;9.886;2024-01-11T01:30:14;93427.13;;;-1.07;72.26
59289;BME280;45056;47.602;9.886;2024-01-11T01:32:42;93423.00;;;-1.04;72.00
59289;BME280;45056;47.602;9.886;2024-01-11T01:35:10;93434.44;;;-1.04;72.11
59289;BME280;45056;47.602;9.886;2024-01-11T01:37:38;93432.56;;;-1.03;71.49
59289;BME280;45056;47.602;9.886;2024-01-11T01:40:07;93440.88;;;-1.08;71.31
59289;BME280;45056;47.602;9.886;2024-01-11T01:42:42;93435.03;;;-1.14;71.13
59289;BME280;45056;47.602;9.886;2024-01-11T01:45:11;93438.13;;;-1.12;71.39
59289;BME280;45056;47.602;9.886;2024-01-11T01:47:41;93442.66;;;-1.12;71.64
59289;BME280;45056;47.602;9.886;2024-01-11T01:50:11;93441.53;;;-1.11;71.39
59289;BME280;45056;47.602;9.886;2024-01-11T01:52:42;93443.47;;;-1.12;70.98
59289;BME280;45056;47.602;9.886;2024-01-11T01:55:12;93433.47;;;-1.15;70.72
59289;BME280;45056;47.602;9.886;2024-01-11T01:57:46;93436.88;;;-1.18;71.15
59289;BME280;45056;47.602;9.886;2024-01-11T02:00:16;93444.88;;;-1.18;71.32
59289;BME280;45056;47.602;9.886;2024-01-11T02:02:46;93448.31;;;-1.18;71.47
59289;BME280;45056;47.602;9.886;2024-01-11T02:05:18;93437.63;;;-1.18;71.08
59289;BME280;45056;47.602;9.886;2024-01-11T02:07:46;93447.88;;;-1.20;71.37
59289;BME280;45056;47.602;9.886;2024-01-11T02:10:15;93449.44;;;-1.19;71.07
59289;BME280;45056;47.602;9.886;2024-01-11T02:12:45;93454.78;;;-1.19;71.32
59289;BME280;45056;47.602;9.886;2024-01-11T02:15:14;93455.16;;;-1.20;71.45
59289;BME280;45056;47.602;9.886;2024-01-11T02:17:42;93458.56;;;-1.20;71.36
59289;BME280;45056;47.602;9.886;2024-01-11T02:20:11;93456.69;;;-1.19;71.60
59289;BME280;45056;47.602;9.886;2024-01-11T02:22:46;93445.16;;;-1.23;71.42
59289;BME280;45056;47.602;9.886;2024-01-11T02:25:18;93443.13;;;-1.30;71.36
59289;BME280;45056;47.602;9.886;2024-01-11T02:27:47;93444.69;;;-1.29;71.64
59289;BME280;45056;47.602;9.886;2024-01-11T02:30:17;93447.75;;;-1.27;71.41
59289;BME280;45056;47.602;9.886;2024-01-11T02:32:47;93443.88;;;-1.29;71.46
59289;BME280;45056;47.602;9.886;2024-01-11T02:35:16;93444.69;;;-1.29;71.52
59289;BME280;45056;47.602;9.886;2024-01-11T02:37:48;93444.69;;;-1.29;71.34
59289;BME280;45056;47.602;9.886;2024-01-11T02:40:20;93442.34;;;-1.31;71.55
59289;BME280;45056;47.602;9.886;2024-01-11T02:42:48;93443.47;;;-1.32;71.69
59289;BME280;45056;47.602;9.886;2024-01-11T02:45:16;93449.53;;;-1.35;71.77
59289;BME280;45056;47.602;9.886;2024-01-11T02:47:45;93443.41;;;-1.35;71.51
59289;BME280;45056;47.602;9.886;2024-01-11T02:50:13;93447.56;;;-1.38;71.91
59289;BME280;45056;47.602;9.886;2024-01-11T02:52:41;93448.25;;;-1.41;71.90
59289;BME280;45056;47.602;9.886;2024-01-11T02:55:09;93437.94;;;-1.42;72.13
59289;BME280;45056;47.602;9.886;2024-01-11T02:57:39;93439.13;;;-1.40;72.03
59289;BME280;45056;47.602;9.886;2024-01-11T03:00:07;93434.22;;;-1.38;72.02
59289;BME280;45056;47.602;9.886;2024-01-11T03:02:37;93433.09;;;-1.37;72.27
59289;BME280;45056;47.602;9.886;2024-01-11T03:05:05;93443.06;;;-1.34;72.31
59289;BME280;45056;47.602;9.886;2024-01-11T03:07:33;93450.78;;;-1.28;72.21
59289;BME280;45056;47.602;9.886;2024-01-11T03:10:01;93432.50;;;-1.26;72.22
59289;BME280;45056;47.602;9.886;2024-01-11T03:12:30;93443.19;;;-1.26;71.91
59289;BME280;45056;47.602;9.886;2024-01-11T03:14:59;93435.88;;;-1.29;71.57
59289;BME280;45056;47.602;9.886;2024-01-11T03:17:27;93434.34;;;-1.31;71.69
59289;BME280;45056;47.602;9.886;2024-01-11T03:19:55;93437.44;;;-1.28;71.56
59289;BME280;45056;47.602;9.886;2024-01-11T03:22:23;93441.63;;;-1.27;71.46
59289;BME280;45056;47.602;9.886;2024-01-11T03:24:51;93430.63;;;-1.26;71.37
59289;BME280;45056;47.602;9.886;2024-01-11T03:27:19;93431.38;;;-1.25;71.05
59289;BME280;45056;47.602;9.886;2024-01-11T03:29:47;93434.03;;;-1.25;70.92
59289;BME280;45056;47.602;9.886;2024-01-11T03:32:18;93434.50;;;-1.23;70.58
59289;BME280;45056;47.602;9.886;2024-01-11T03:34:46;93433.38;;;-1.22;70.45
59289;BME280;45056;47.602;9.886;2024-01-11T03:37:14;93430.69;;;-1.22;70.44
59289;BME280;45056;47.602;9.886;2024-01-11T03:39:43;93437.91;;;-1.23;69.96
59289;BME280;45056;47.602;9.886;2024-01-11T03:42:11;93431.75;;;-1.27;69.62
59289;BME280;45056;47.602;9.886;2024-01-11T03:44:39;93435.13;;;-1.30;68.95
59289;BME280;45056;47.602;9.886;2024-01-11T03:47:07;93433.16;;;-1.33;68.91
59289;BME280;45056;47.602;9.886;2024-01-11T03:49:36;93424.31;;;-1.37;68.64
59289;BME280;45056;47.602;9.886;2024-01-11T03:52:05;93418.13;;;-1.41;68.35
59289;BME280;45056;47.602;9.886;2024-01-11T03:54:35;93428.75;;;-1.45;68.37
59289;BME280;45056;47.602;9.886;2024-01-11T03:57:03;93426.41;;;-1.47;68.58
59289;BME280;45056;47.602;9.886;2024-01-11T03:59:32;93427.53;;;-1.48;68.65
59289;BME280;45056;47.602;9.886;2024-01-11T04:02:01;93431.75;;;-1.47;68.43
59289;BME280;45056;47.602;9.886;2024-01-11T04:04:29;93432.16;;;-1.45;68.55
59289;BME280;45056;47.602;9.886;2024-01-11T04:06:59;93429.50;;;-1.45;68.04
59289;BME280;45056;47.602;9.886;2024-01-11T04:09:27;93435.63;;;-1.44;68.18
59289;BME280;45056;47.602;9.886;2024-01-11T04:11:55;93435.63;;;-1.44;68.22
59289;BME280;45056;47.602;9.886;2024-01-11T04:14:23;93435.25;;;-1.42;68.13
59289;BME280;45056;47.602;9.886;2024-01-11T04:16:51;93433.38;;;-1.42;67.83
59289;BME280;45056;47.602;9.886;2024-01-11T04:19:20;93433.38;;;-1.42;68.24
59289;BME280;45056;47.602;9.886;2024-01-11T04:21:48;93434.50;;;-1.43;68.14
59289;BME280;45056;47.602;9.886;2024-01-11T04:24:17;93432.97;;;-1.44;67.94
59289;BME280;45056;47.602;9.886;2024-01-11T04:26:45;93429.88;;;-1.46;68.08
59289;BME280;45056;47.602;9.886;2024-01-11T04:29:13;93427.50;;;-1.51;68.31
59289;BME280;45056;47.602;9.886;2024-01-11T04:31:41;93427.31;;;-1.58;69.14
59289;BME280;45056;47.602;9.886;2024-01-11T04:34:09;93434.91;;;-1.61;69.59
59289;BME280;45056;47.602;9.886;2024-01-11T04:36:37;93429.56;;;-1.61;69.91
59289;BME280;45056;47.602;9.886;2024-01-11T04:39:06;93428.44;;;-1.60;69.86
59289;BME280;45056;47.602;9.886;2024-01-11T04:41:36;93423.91;;;-1.59;69.80
59289;BME280;45056;47.602;9.886;2024-01-11T04:44:04;93424.25;;;-1.61;69.97
59289;BME280;45056;47.602;9.886;2024-01-11T04:46:32;93421.94;;;-1.62;70.37
59289;BME280;45056;47.602;9.886;2024-01-11T04:49:00;93430.38;;;-1.60;70.35
59289;BME280;45056;47.602;9.886;2024-01-11T04:51:28;93430.78;;;-1.58;70.24
59289;BME280;45056;47.602;9.886;2024-01-11T04:53:56;93425.88;;;-1.56;70.63
59289;BME280;45056;47.602;9.886;2024-01-11T04:56:24;93430.88;;;-1.54;70.44
59289;BME280;45056;47.602;9.886;2024-01-11T04:58:53;93425.56;;;-1.51;70.32
59289;BME280;45056;47.602;9.886;2024-01-11T05:01:21;93419.91;;;-1.49;70.69
59289;BME280;45056;47.602;9.886;2024-01-11T05:03:50;93422.56;;;-1.49;70.61
59289;BME280;45056;47.602;9.886;2024-01-11T05:06:19;93412.22;;;-1.51;70.43
59289;BME280;45056;47.602;9.886;2024-01-11T05:08:50;93418.69;;;-1.52;70.12
59289;BME280;45056;47.602;9.886;2024-01-11T05:11:21;93407.53;;;-1.57;69.88
59289;BME280;45056;47.602;9.886;2024-01-11T05:13:51;93416.53;;;-1.66;69.95
59289;BME280;45056;47.602;9.886;2024-01-11T05:16:22;93416.06;;;-1.71;70.27
59289;BME280;45056;47.602;9.886;2024-01-11T05:18:52;93411.81;;;-1.72;70.03
59289;BME280;45056;47.602;9.886;2024-01-11T05:21:21;93414.84;;;-1.74;70.24
59289;BME280;45056;47.602;9.886;2024-01-11T05:23:50;93422.44;;;-1.76;70.50
59289;BME280;45056;47.602;9.886;2024-01-11T05:26:19;93419.19;;;-1.85;70.18
59289;BME280;45056;47.602;9.886;2024-01-11T05:28:47;93422.13;;;-1.91;70.53
59289;BME280;45056;47.602;9.886;2024-01-11T05:31:15;93423.66;;;-1.90;70.94
59289;BME280;45056;47.602;9.886;2024-01-11T05:33:45;93412.16;;;-1.94;71.09
59289;BME280;45056;47.602;9.886;2024-01-11T05:36:13;93418.63;;;-1.95;71.05
59289;BME280;45056;47.602;9.886;2024-01-11T05:38:41;93419.41;;;-1.94;71.19
59289;BME280;45056;47.602;9.886;2024-01-11T05:41:09;93414.50;;;-1.92;71.55
59289;BME280;45056;47.602;9.886;2024-01-11T05:43:37;93430.13;;;-1.91;71.51
59289;BME280;45056;47.602;9.886;2024-01-11T05:46:06;93426.75;;;-1.88;71.68
59289;BME280;45056;47.602;9.886;2024-01-11T05:48:34;93417.22;;;-1.89;71.59
59289;BME280;45056;47.602;9.886;2024-01-11T05:51:04;93428.66;;;-1.88;71.63
59289;BME280;45056;47.602;9.886;2024-01-11T05:53:32;93431.75;;;-1.86;71.54
59289;BME280;45056;47.602;9.886;2024-01-11T05:56:02;93429.88;;;-1.85;71.56
59289;BME280;45056;47.602;9.886;2024-01-11T05:58:35;93434.84;;;-1.84;71.49
59289;BME280;45056;47.602;9.886;2024-01-11T06:01:04;93444.09;;;-1.78;71.71
59289;BME280;45056;47.602;9.886;2024-01-11T06:03:32;93441.09;;;-1.76;71.51
59289;BME280;45056;47.602;9.886;2024-01-11T06:06:00;93449.53;;;-1.74;71.33
59289;BME280;45056;47.602;9.886;2024-01-11T06:08:31;93457.13;;;-1.76;71.27
59289;BME280;45056;47.602;9.886;2024-01-11T06:10:59;93457.03;;;-1.80;71.37
59289;BME280;45056;47.602;9.886;2024-01-11T06:13:27;93451.28;;;-1.82;71.08
59289;BME280;45056;47.602;9.886;2024-01-11T06:15:55;93452.81;;;-1.81;71.40
59289;BME280;45056;47.602;9.886;2024-01-11T06:18:23;93455.91;;;-1.79;71.39
59289;BME280;45056;47.602;9.886;2024-01-11T06:20:51;93461.66;;;-1.77;70.97
59289;BME280;45056;47.602;9.886;2024-01-11T06:23:19;93459.41;;;-1.75;71.29
59289;BME280;45056;47.602;9.886;2024-01-11T06:25:48;93457.53;;;-1.74;71.03
59289;BME280;45056;47.602;9.886;2024-01-11T06:28:16;93468.91;;;-1.77;70.99
59289;BME280;45056;47.602;9.886;2024-01-11T06:30:44;93460.75;;;-1.84;70.86
59289;BME280;45056;47.602;9.886;2024-01-11T06:33:12;93458.63;;;-1.95;70.78
59289;BME280;45056;47.602;9.886;2024-01-11T06:35:41;93461.47;;;-2.04;70.86
59289;BME280;45056;47.602;9.886;2024-01-11T06:38:09;93463.66;;;-2.09;70.82
59289;BME280;45056;47.602;9.886;2024-01-11T06:40:36;93460.91;;;-2.13;70.77
59289;BME280;45056;47.602;9.886;2024-01-11T06:43:06;93473.13;;;-2.12;71.19
59289;BME280;45056;47.602;9.886;2024-01-11T06:45:34;93477.41;;;-2.07;71.30
59289;BME280;45056;47.602;9.886;2024-01-11T06:48:02;93475.59;;;-2.03;71.15
59289;BME280;45056;47.602;9.886;2024-01-11T06:50:31;93474.91;;;-2.00;71.13
59289;BME280;45056;47.602;9.886;2024-01-11T06:52:59;93484.13;;;-1.97;70.92
59289;BME280;45056;47.602;9.886;2024-01-11T06:55:27;93487.53;;;-1.97;71.02
59289;BME280;45056;47.602;9.886;2024-01-11T06:57:55;93483.00;;;-1.96;71.04
59289;BME280;45056;47.602;9.886;2024-01-11T07:00:25;93479.53;;;-1.97;70.83
59289;BME280;45056;47.602;9.886;2024-01-11T07:02:53;93494.78;;;-1.97;71.04
59289;BME280;45056;47.602;9.886;2024-01-11T07:05:21;93500.44;;;-1.99;70.87
59289;BME280;45056;47.602;9.886;2024-01-11T07:07:49;93499.31;;;-1.98;70.51
59289;BME280;45056;47.602;9.886;2024-01-11T07:10:18;93502.78;;;-1.97;70.29
59289;BME280;45056;47.602;9.886;2024-01-11T07:12:46;93509.16;;;-2.02;70.48
59289;BME280;45056;47.602;9.886;2024-01-11T07:15:14;93515.59;;;-2.03;70.21
59289;BME280;45056;47.602;9.886;2024-01-11T07:17:45;93512.50;;;-2.05;70.16
59289;BME280;45056;47.602;9.886;2024-01-11T07:20:13;93509.69;;;-2.12;69.40
59289;BME280;45056;47.602;9.886;2024-01-11T07:22:43;93510.63;;;-2.21;69.22
59289;BME280;45056;47.602;9.886;2024-01-11T07:25:11;93504.44;;;-2.25;68.91
59289;BME280;45056;47.602;9.886;2024-01-11T07:27:40;93501.78;;;-2.25;69.60
59289;BME280;45056;47.602;9.886;2024-01-11T07:30:11;93503.25;;;-2.27;69.04
59289;BME280;45056;47.602;9.886;2024-01-11T07:32:39;93512.97;;;-2.35;69.08
59289;BME280;45056;47.602;9.886;2024-01-11T07:35:09;93516.66;;;-2.40;69.37
59289;BME280;45056;47.602;9.886;2024-01-11T07:37:39;93520.38;;;-2.44;68.77
59289;BME280;45056;47.602;9.886;2024-01-11T07:40:08;93530.41;;;-2.54;68.79
59289;BME280;45056;47.602;9.886;2024-01-11T07:42:37;93517.59;;;-2.64;68.54
59289;BME280;45056;47.602;9.886;2024-01-11T07:45:07;93513.22;;;-2.72;68.95
59289;BME280;45056;47.602;9.886;2024-01-11T07:47:36;93502.47;;;-2.76;69.23
59289;BME280;45056;47.602;9.886;2024-01-11T07:50:05;93512.38;;;-2.77;69.29
59289;BME280;45056;47.602;9.886;2024-01-11T07:52:35;93510.88;;;-2.74;69.58
59289;BME280;45056;47.602;9.886;2024-01-11T07:55:04;93512.53;;;-2.69;69.83
59289;BME280;45056;47.602;9.886;2024-01-11T07:57:34;93526.38;;;-2.64;69.86
59289;BME280;45056;47.602;9.886;2024-01-11T08:00:03;93533.00;;;-2.57;69.69
59289;BME280;45056;47.602;9.886;2024-01-11T08:02:34;93528.97;;;-2.51;69.73
59289;BME280;45056;47.602;9.886;2024-01-11T08:05:05;93529.81;;;-2.47;69.68
59289;BME280;45056;47.602;9.886;2024-01-11T08:07:34;93534.56;;;-2.40;69.86
59289;BME280;45056;47.602;9.886;2024-01-11T08:10:03;93533.88;;;-2.37;69.59
59289;BME280;45056;47.602;9.886;2024-01-11T08:12:33;93525.00;;;-2.41;69.85
59289;BME280;45056;47.602;9.886;2024-01-11T08:15:01;93533.69;;;-2.44;69.83
59289;BME280;45056;47.602;9.886;2024-01-11T08:17:29;93532.47;;;-2.47;69.54
59289;BME280;45056;47.602;9.886;2024-01-11T08:19:57;93538.25;;;-2.45;69.77
59289;BME280;45056;47.602;9.886;2024-01-11T08:22:25;93533.69;;;-2.44;69.50
59289;BME280;45056;47.602;9.886;2024-01-11T08:24:56;93542.56;;;-2.40;69.48
59289;BME280;45056;47.602;9.886;2024-01-11T08:27:24;93533.00;;;-2.41;69.21
59289;BME280;45056;47.602;9.886;2024-01-11T08:29:52;93540.22;;;-2.42;68.93
59289;BME280;45056;47.602;9.886;2024-01-11T08:32:21;93542.56;;;-2.40;68.93
59289;BME280;45056;47.602;9.886;2024-01-11T08:34:49;93549.75;;;-2.41;69.22
59289;BME280;45056;47.602;9.886;2024-01-11T08:37:17;93558.88;;;-2.42;68.93
59289;BME280;45056;47.602;9.886;2024-01-11T08:39:45;93553.97;;;-2.40;69.26
59289;BME280;45056;47.602;9.886;2024-01-11T08:42:15;93551.84;;;-2.34;69.47
59289;BME280;45056;47.602;9.886;2024-01-11T08:44:43;93558.81;;;-2.29;68.77
59289;BME280;45056;47.602;9.886;2024-01-11T08:47:11;93551.66;;;-2.25;68.41
59289;BME280;45056;47.602;9.886;2024-01-11T08:49:39;93549.50;;;-2.20;68.39
59289;BME280;45056;47.602;9.886;2024-01-11T08:52:07;93547.34;;;-2.14;68.70
59289;BME280;45056;47.602;9.886;2024-01-11T08:54:35;93552.00;;;-2.11;67.83
59289;BME280;45056;47.602;9.886;2024-01-11T08:57:04;93553.03;;;-2.15;67.38
59289;BME280;45056;47.602;9.886;2024-01-11T08:59:33;93560.16;;;-2.20;68.25
59289;BME280;45056;47.602;9.886;2024-01-11T09:02:01;93565.16;;;-2.18;68.01
59289;BME280;45056;47.602;9.886;2024-01-11T09:04:29;93571.63;;;-2.19;67.83
59289;BME280;45056;47.602;9.886;2024-01-11T09:06:58;93576.94;;;-2.19;67.32
59289;BME280;45056;47.602;9.886;2024-01-11T09:09:26;93568.41;;;-2.25;66.86
59289;BME280;45056;47.602;9.886;2024-01-11T09:11:54;93561.63;;;-2.38;66.39
59289;BME280;45056;47.602;9.886;2024-01-11T09:14:22;93548.13;;;-2.45;67.16
59289;BME280;45056;47.602;9.886;2024-01-11T09:16:52;93543.94;;;-2.47;67.09
59289;BME280;45056;47.602;9.886;2024-01-11T09:19:20;93549.75;;;-2.41;67.12
59289;BME280;45056;47.602;9.886;2024-01-11T09:21:48;93562.75;;;-2.39;66.91
59289;BME280;45056;47.602;9.886;2024-01-11T09:24:16;93558.97;;;-2.38;66.92
59289;BME280;45056;47.602;9.886;2024-01-11T09:26:44;93559.41;;;-2.36;67.37
59289;BME280;45056;47.602;9.886;2024-01-11T09:29:12;93570.16;;;-2.33;67.37
59289;BME280;45056;47.602;9.886;2024-01-11T09:31:41;93570.22;;;-2.29;67.09
59289;BME280;45056;47.602;9.886;2024-01-11T09:34:10;93582.81;;;-2.29;67.39
59289;BME280;45056;47.602;9.886;2024-01-11T09:36:39;93584.00;;;-2.27;67.90
59289;BME280;45056;47.602;9.886;2024-01-11T09:39:07;93582.28;;;-2.19;67.58
59289;BME280;45056;47.602;9.886;2024-01-11T09:41:36;93583.91;;;-2.14;67.46
59289;BME280;45056;47.602;9.886;2024-01-11T09:44:08;93585.91;;;-2.11;66.97
59289;BME280;45056;47.602;9.886;2024-01-11T09:46:37;93590.53;;;-2.08;66.81
59289;BME280;45056;47.602;9.886;2024-01-11T09:49:05;93591.41;;;-2.04;67.39
59289;BME280;45056;47.602;9.886;2024-01-11T09:51:37;93586.22;;;-1.97;67.35
59289;BME280;45056;47.602;9.886;2024-01-11T09:54:10;93588.97;;;-1.93;66.69
59289;BME280;45056;47.602;9.886;2024-01-11T09:56:39;93588.97;;;-1.93;67.24
59289;BME280;45056;47.602;9.886;2024-01-11T09:59:09;93587.00;;;-1.96;66.32
59289;BME280;45056;47.602;9.886;2024-01-11T10:01:38;93582.59;;;-2.05;66.85
59289;BME280;45056;47.602;9.886;2024-01-11T10:04:07;93596.31;;;-2.06;66.98
59289;BME280;45056;47.602;9.886;2024-01-11T10:06:39;93590.28;;;-2.03;67.12
59289;BME280;45056;47.602;9.886;2024-01-11T10:09:08;93598.00;;;-1.98;67.48
59289;BME280;45056;47.602;9.886;2024-01-11T10:11:37;93596.63;;;-1.92;66.77
59289;BME280;45056;47.602;9.886;2024-01-11T10:14:05;93606.28;;;-1.87;66.63
59289;BME280;45056;47.602;9.886;2024-01-11T10:16:34;93610.91;;;-1.84;66.77
59289;BME280;45056;47.602;9.886;2024-01-11T10:19:02;93620.13;;;-1.81;66.17
59289;BME280;45056;47.602;9.886;2024-01-11T10:21:30;93619.78;;;-1.80;65.69
59289;BME280;45056;47.602;9.886;2024-01-11T10:23:59;93621.25;;;-1.82;65.76
59289;BME280;45056;47.602;9.886;2024-01-11T10:26:30;93611.28;;;-1.85;65.22
59289;BME280;45056;47.602;9.886;2024-01-11T10:29:00;93603.28;;;-1.85;65.33
59289;BME280;45056;47.602;9.886;2024-01-11T10:31:28;93603.00;;;-1.80;65.18
59289;BME280;45056;47.602;9.886;2024-01-11T10:33:57;93603.50;;;-1.75;64.40
59289;BME280;45056;47.602;9.886;2024-01-11T10:36:25;93603.59;;;-1.71;64.41
59289;BME280;45056;47.602;9.886;2024-01-11T10:38:55;93606.34;;;-1.67;63.87
59289;BME280;45056;47.602;9.886;2024-01-11T10:41:29;93604.88;;;-1.65;63.66
59289;BME280;45056;47.602;9.886;2024-01-11T10:44:14;93611.00;;;-1.64;63.49
59289;BME280;45056;47.602;9.886;2024-01-11T10:46:48;93607.53;;;-1.65;63.22
59289;BME280;45056;47.602;9.886;2024-01-11T10:49:18;93609.50;;;-1.62;63.16
59289;BME280;45056;47.602;9.886;2024-01-11T10:51:53;93605.66;;;-1.64;62.64
59289;BME280;45056;47.602;9.886;2024-01-11T10:54:27;93604.47;;;-1.83;61.68
59289;BME280;45056;47.602;9.886;2024-01-11T10:56:58;93594.75;;;-2.07;62.01
59289;BME280;45056;47.602;9.886;2024-01-11T10:59:31;93588.19;;;-2.26;62.40
59289;BME280;45056;47.602;9.886;2024-01-11T11:02:04;93584.94;;;-2.35;63.58
59289;BME280;45056;47.602;9.886;2024-01-11T11:04:38;93570.50;;;-2.34;63.59
59289;BME280;45056;47.602;9.886;2024-01-11T11:07:09;93571.28;;;-2.34;63.95
59289;BME280;45056;47.602;9.886;2024-01-11T11:09:38;93557.16;;;-2.34;63.58
59289;BME280;45056;47.602;9.886;2024-01-11T11:12:12;93558.19;;;-2.39;64.07
59289;BME280;45056;47.602;9.886;2024-01-11T11:14:42;93563.44;;;-2.42;64.17
59289;BME280;45056;47.602;9.886;2024-01-11T11:17:11;93551.94;;;-2.47;64.57
59289;BME280;45056;47.602;9.886;2024-01-11T11:19:42;93542.81;;;-2.45;64.71
59289;BME280;45056;47.602;9.886;2024-01-11T11:22:13;93542.63;;;-2.37;65.08
59289;BME280;45056;47.602;9.886;2024-01-11T11:24:42;93539.09;;;-2.25;65.05
59289;BME280;45056;47.602;9.886;2024-01-11T11:27:14;93534.44;;;-2.12;65.55
59289;BME280;45056;47.602;9.886;2024-01-11T11:29:46;93522.91;;;-2.00;65.15
59289;BME280;45056;47.602;9.886;2024-01-11T11:32:15;93510.84;;;-1.94;65.11
59289;BME280;45056;47.602;9.886;2024-01-11T11:34:44;93511.28;;;-1.92;64.89
59289;BME280;45056;47.602;9.886;2024-01-11T11:37:12;93521.94;;;-1.92;65.20
59289;BME280;45056;47.602;9.886;2024-01-11T11:39:41;93513.75;;;-1.83;65.82
59289;BME280;45056;47.602;9.886;2024-01-11T11:42:11;93517.06;;;-1.70;65.44
59289;BME280;45056;47.602;9.886;2024-01-11T11:44:49;93507.25;;;-1.66;65.12
59289;BME280;45056;47.602;9.886;2024-01-11T11:47:19;93508.78;;;-1.65;65.66
59289;BME280;45056;47.602;9.886;2024-01-11T11:50:04;93501.00;;;-1.54;65.79
59289;BME280;45056;47.602;9.886;2024-01-11T11:52:35;93499.31;;;-1.42;65.57
59289;BME280;45056;47.602;9.886;2024-01-11T11:55:07;93508.25;;;-1.35;65.61
59289;BME280;45056;47.602;9.886;2024-01-11T11:57:36;93513.72;;;-1.27;65.92
59289;BME280;45056;47.602;9.886;2024-01-11T12:00:06;93510.38;;;-1.24;65.37
59289;BME280;45056;47.602;9.886;2024-01-11T12:02:38;93507.44;;;-1.19;65.39
59289;BME280;45056;47.602;9.886;2024-01-11T12:05:07;93515.84;;;-1.17;64.98
59289;BME280;45056;47.602;9.886;2024-01-11T12:07:35;93502.91;;;-1.15;65.13
59289;BME280;45056;47.602;9.886;2024-01-11T12:10:05;93503.06;;;-1.08;65.02
59289;BME280;45056;47.602;9.886;2024-01-11T12:12:34;93504.31;;;-1.02;64.67
59289;BME280;45056;47.602;9.886;2024-01-11T12:15:05;93505.13;;;-0.97;64.59
59289;BME280;45056;47.602;9.886;2024-01-11T12:17:35;93507.53;;;-0.92;64.78
59289;BME280;45056;47.602;9.886;2024-01-11T12:20:06;93504.22;;;-0.85;64.69
59289;BME280;45056;47.602;9.886;2024-01-11T12:22:34;93514.19;;;-0.82;64.33
59289;BME280;45056;47.602;9.886;2024-01-11T12:25:04;93509.63;;;-0.82;63.75
59289;BME280;45056;47.602;9.886;2024-01-11T12:27:33;93514.91;;;-0.85;63.36
59289;BME280;45056;47.602;9.886;2024-01-11T12:30:01;93515.19;;;-0.91;63.26
59289;BME280;45056;47.602;9.886;2024-01-11T12:32:31;93516.25;;;-0.95;63.28
59289;BME280;45056;47.602;9.886;2024-01-11T12:35:01;93522.28;;;-0.98;62.92
59289;BME280;45056;47.602;9.886;2024-01-11T12:37:30;93524.13;;;-1.03;63.02
59289;BME280;45056;47.602;9.886;2024-01-11T12:39:58;93518.25;;;-1.12;63.07
59289;BME280;45056;47.602;9.886;2024-01-11T12:42:27;93517.41;;;-1.16;63.26
59289;BME280;45056;47.602;9.886;2024-01-11T12:44:55;93531.81;;;-1.21;63.20
59289;BME280;45056;47.602;9.886;2024-01-11T12:47:23;93528.56;;;-1.30;63.04
59289;BME280;45056;47.602;9.886;2024-01-11T12:49:53;93532.22;;;-1.38;63.35
59289;BME280;45056;47.602;9.886;2024-01-11T12:52:21;93547.38;;;-1.42;63.65
59289;BME280;45056;47.602;9.886;2024-01-11T12:54:52;93547.31;;;-1.46;63.44
59289;BME280;45056;47.602;9.886;2024-01-11T12:57:20;93549.47;;;-1.52;63.36
59289;BME280;45056;47.602;9.886;2024-01-11T12:59:49;93559.66;;;-1.57;63.57
59289;BME280;45056;47.602;9.886;2024-01-11T13:02:17;93556.56;;;-1.60;63.95
59289;BME280;45056;47.602;9.886;2024-01-11T13:04:46;93564.22;;;-1.58;63.74
59289;BME280;45056;47.602;9.886;2024-01-11T13:07:15;93559.22;;;-1.60;63.78
59289;BME280;45056;47.602;9.886;2024-01-11T13:09:44;93559.91;;;-1.63;63.60